Have a Safe July 4th! 

Flight Track Log - Related Links

Times and Time Zones

All times are in EST time to prevent confusion due to time zone crossing. See the QXE2633 flight status page for this flight to view local times or setup timezone preferences in your user account.

Time Position Orientation Groundspeed Altitude Reporting Facility
EST Latitude Longitude Course Direction KTS MPH feet Rate Location/Type
Sun 06:42:00 PM 45.0779 -122.4153 170° South  Level FlightAware Approximate
Sun 06:43:00 PM 44.9924 -122.3951 172° South  Level FlightAware Approximate
Sun 06:44:00 PM 44.9066 -122.3780 172° South  Level FlightAware Approximate
Sun 06:45:00 PM 44.8211 -122.3580 168° South  Level FlightAware Approximate
Sun 06:46:00 PM 44.7363 -122.3325 168° South  Level FlightAware Approximate
Sun 06:47:00 PM 44.6513 -122.3086 170° South  Level FlightAware Approximate
Sun 06:48:00 PM 44.5659 -122.2873 170° South  Level FlightAware Approximate
Sun 06:49:00 PM 44.4806 -122.2661 172° South  Level FlightAware Approximate
Sun 06:50:00 PM 44.3948 -122.2489 172° South  Level FlightAware Approximate
Sun 06:51:00 PM 44.3092 -122.2303 164° South  Level FlightAware Approximate
Sun 06:52:00 PM 44.2256 -122.1982 170° South  Level FlightAware Approximate
Sun 06:53:00 PM 44.1401 -122.1781 170° South  Level FlightAware Approximate
Sun 06:54:00 PM 44.0547 -122.1581 170° South  Level FlightAware Approximate
Sun 06:55:00 PM 43.9692 -122.1381 170° South  Level FlightAware Approximate
Sun 06:56:00 PM 43.8837 -122.1182 170° South  Level FlightAware Approximate
Sun 06:57:00 PM 43.7982 -122.0984 170° South  Level FlightAware Approximate
Sun 06:58:00 PM 43.7127 -122.0785 170° South  Level FlightAware Approximate
Sun 06:59:00 PM 43.6272 -122.0587 170° South  Level FlightAware Approximate
Sun 07:00:00 PM 43.5417 -122.0390 170° South  Level FlightAware Approximate
Sun 07:01:00 PM 43.4562 -122.0193 171° South  Level FlightAware Approximate
Sun 07:02:00 PM 43.3706 -121.9996 171° South  Level FlightAware Approximate
Sun 07:03:00 PM 43.2851 -121.9800 171° South  Level FlightAware Approximate
Sun 07:04:00 PM 43.1996 -121.9605 171° South  Level FlightAware Approximate
Sun 07:05:00 PM 43.1141 -121.9410 171° South  Level FlightAware Approximate
Sun 07:06:00 PM 43.0286 -121.9216 171° South  Level FlightAware Approximate
Sun 07:07:00 PM 42.9430 -121.9022 171° South  Level FlightAware Approximate
Sun 07:08:00 PM 42.8576 -121.8821 170° South  Level FlightAware Approximate
Sun 07:09:00 PM 42.7722 -121.8619 170° South  Level FlightAware Approximate
Sun 07:10:00 PM 42.6868 -121.8418 170° South  Level FlightAware Approximate
Sun 07:11:00 PM 42.6078 -121.8232 170° South  Level FlightAware Approximate
Sun 07:12:00 PM 42.5289 -121.8048 170° South  Level FlightAware Approximate
Sun 07:13:00 PM 42.4500 -121.7863 170° South  Level FlightAware Approximate
Sun 07:14:00 PM 42.3710 -121.7679 170° South  Level FlightAware Approximate
Sun 07:15:00 PM 42.2921 -121.7496 170° South  Level FlightAware Approximate
Sun 07:16:00 PM 42.2132 -121.7313 170° South  Level FlightAware Approximate
Sun 07:17:00 PM 42.1340 -121.7167 180° South  Level FlightAware Approximate
Sun 07:18:00 PM 42.0539 -121.7167 180° South  Level FlightAware Approximate
Sun 07:19:00 PM 41.9738 -121.7167 180° South  Level FlightAware Approximate
Sun 07:20:00 PM 41.8937 -121.7167 180° South  Level FlightAware Approximate
Sun 07:21:00 PM 41.8136 -121.7167 180° South  Level FlightAware Approximate
Sun 07:22:00 PM 41.7335 -121.7167 180° South  Level FlightAware Approximate
Sun 07:23:00 PM 41.6534 -121.7167 180° South  Level FlightAware Approximate
Sun 07:24:00 PM 41.5733 -121.7167 180° South  Level FlightAware Approximate
Sun 07:25:00 PM 41.4932 -121.7167 180° South  Level FlightAware Approximate
Sun 07:26:00 PM 41.4131 -121.7167 180° South  Level FlightAware Approximate
Sun 07:27:00 PM 41.3330 -121.7167 180° South  Level FlightAware Approximate
Sun 07:28:00 PM 41.2529 -121.7167 180° South  Level FlightAware Approximate
Sun 07:29:00 PM 41.1728 -121.7167 180° South  Level FlightAware Approximate
Sun 07:30:00 PM 41.0927 -121.7167 180° South  Level FlightAware Approximate
Sun 07:31:00 PM 41.0087 -121.7114 177° South  Level FlightAware Approximate
Sun 07:32:00 PM 40.9247 -121.7062 177° South  Level FlightAware Approximate
Sun 07:33:00 PM 40.8407 -121.7010 177° South  Level FlightAware Approximate
Sun 07:34:00 PM 40.7567 -121.6958 177° South  Level FlightAware Approximate
Sun 07:35:00 PM 40.6727 -121.6906 177° South  Level FlightAware Approximate
Sun 07:36:00 PM 40.5887 -121.6854 177° South  Level FlightAware Approximate
Sun 07:37:00 PM 40.5050 -121.6774 176° South  Level FlightAware Approximate
Sun 07:38:00 PM 40.4210 -121.6672 175° South  Level FlightAware Approximate
Sun 07:39:00 PM 40.3363 -121.6618 177° South  Level FlightAware Approximate
Sun 07:40:00 PM 40.2517 -121.6567 177° South  Level FlightAware Approximate
Sun 07:41:00 PM 40.1671 -121.6516 177° South  Level FlightAware Approximate
Sun 07:42:00 PM 40.0825 -121.6465 177° South  Level FlightAware Approximate
Sun 07:43:00 PM 39.9979 -121.6414 177° South  Level FlightAware Approximate
Sun 07:44:00 PM 39.9132 -121.6363 177° South  Level FlightAware Approximate
Sun 07:45:00 PM 39.8286 -121.6313 177° South  Level FlightAware Approximate
Sun 07:46:00 PM 39.7436 -121.6262 177° South  Level FlightAware Approximate
Sun 07:47:00 PM 39.6586 -121.6211 177° South  Level FlightAware Approximate
Sun 07:48:00 PM 39.5736 -121.6167 180° South  Level FlightAware Approximate
Sun 07:49:00 PM 39.4885 -121.6167 180° South  Level FlightAware Approximate
Sun 07:50:00 PM 39.4037 -121.6087 176° South  Level FlightAware Approximate
Sun 07:51:00 PM 39.3188 -121.6002 176° South  Level FlightAware Approximate
Sun 07:52:00 PM 39.2338 -121.6000 180° South  Level FlightAware Approximate
Sun 07:53:00 PM 39.1487 -121.6000 180° South  Level FlightAware Approximate
Sun 07:54:00 PM 39.0638 -121.5948 174° South  Level FlightAware Approximate
Sun 07:55:00 PM 38.9792 -121.5833 180° South  Level FlightAware Approximate
Sun 07:56:00 PM 38.8941 -121.5833 180° South  Level FlightAware Approximate
Sun 07:57:00 PM 38.8090 -121.5833 180° South  Level FlightAware Approximate
Sun 07:58:00 PM 38.7239 -121.5833 180° South  Level FlightAware Approximate
Sun 07:59:00 PM 38.6954 -121.5908 180° South  Level Estimated
Sun 08:00:00 PM 38.6954 -121.5908 180° South  Level Estimated
Sun 08:01:00 PM 38.6954 -121.5908 180° South  Level Estimated
Sun 08:02:00 PM 38.6954 -121.5908 180° South  Level Estimated
Sun 08:03:00 PM 38.6954 -121.5908 198° South  Level Estimated
Sun 08:04:00 PM 38.6954 -121.5908 21° North  Level Estimated
Sun 08:05:00 PM 38.6954 -121.5908 154° Southeast  Level Estimated
Sun 08:06:00 PM 38.6954 -121.5908 270° West  Level Estimated
Sun 08:07:00 PM 38.6954 -121.5908 270° West  Level Estimated
Sun 08:08:00 PM 38.6954 -121.5908 270° West  Level Estimated
Sun 08:09:00 PM 38.6954 -121.5908 270° West  Level Estimated
Sun 08:10:00 PM 38.6954 -121.5908 270° West  Level Estimated
Sun 08:11:00 PM 38.6954 -121.5908 270° West  Level Estimated
Sun 08:12:00 PM 38.6954 -121.5908 270° West  Level Estimated
Sun 08:13:00 PM 38.6954 -121.5908 270° West  Level Estimated
Sun 08:14:00 PM 38.6954 -121.5908 270° West  Level Estimated
Sun 08:15:00 PM 38.6954 -121.5908 270° West  Level Estimated
Sun 08:16:00 PM 38.6954 -121.5908 270° West  Level Estimated

Login

Don't have an account? Register now (free) for customized features, flight alerts, and more!